sensor_id;sensor_type;location;lat;lon;timestamp;temperature;humidity
17831;DHT22;9040;51.332;12.406;2022-09-01T00:00:06;17.20;99.90
17831;DHT22;9040;51.332;12.406;2022-09-01T00:02:37;17.10;99.90
17831;DHT22;9040;51.332;12.406;2022-09-01T00:05:05;17.20;99.90
17831;DHT22;9040;51.332;12.406;2022-09-01T00:07:32;17.20;99.90
17831;DHT22;9040;51.332;12.406;2022-09-01T00:10:02;17.20;99.90
17831;DHT22;9040;51.332;12.406;2022-09-01T00:12:30;17.20;99.90
17831;DHT22;9040;51.332;12.406;2022-09-01T00:14:57;17.20;99.90
17831;DHT22;9040;51.332;12.406;2022-09-01T00:17:25;17.20;99.90
17831;DHT22;9040;51.332;12.406;2022-09-01T00:19:53;17.30;99.90
17831;DHT22;9040;51.332;12.406;2022-09-01T00:22:20;17.30;99.90
17831;DHT22;9040;51.332;12.406;2022-09-01T00:24:47;17.30;99.90
17831;DHT22;9040;51.332;12.406;2022-09-01T00:27:14;17.30;99.90
17831;DHT22;9040;51.332;12.406;2022-09-01T00:29:41;17.30;99.90
17831;DHT22;9040;51.332;12.406;2022-09-01T00:32:08;17.30;99.90
17831;DHT22;9040;51.332;12.406;2022-09-01T00:34:35;17.30;99.90
17831;DHT22;9040;51.332;12.406;2022-09-01T00:37:03;17.30;99.90
17831;DHT22;9040;51.332;12.406;2022-09-01T00:39:30;17.40;99.90
17831;DHT22;9040;51.332;12.406;2022-09-01T00:41:57;17.40;99.90
17831;DHT22;9040;51.332;12.406;2022-09-01T00:44:24;17.30;99.90
17831;DHT22;9040;51.332;12.406;2022-09-01T00:46:53;17.30;99.90
17831;DHT22;9040;51.332;12.406;2022-09-01T00:49:27;17.30;99.90
17831;DHT22;9040;51.332;12.406;2022-09-01T00:51:59;17.30;99.90
17831;DHT22;9040;51.332;12.406;2022-09-01T00:54:31;17.30;99.90
17831;DHT22;9040;51.332;12.406;2022-09-01T00:56:59;17.20;99.90
17831;DHT22;9040;51.332;12.406;2022-09-01T00:59:28;17.20;99.90
17831;DHT22;9040;51.332;12.406;2022-09-01T01:01:55;17.10;99.90
17831;DHT22;9040;51.332;12.406;2022-09-01T01:04:23;17.10;99.90
17831;DHT22;9040;51.332;12.406;2022-09-01T01:06:53;17.00;99.90
17831;DHT22;9040;51.332;12.406;2022-09-01T01:09:29;17.00;99.90
17831;DHT22;9040;51.332;12.406;2022-09-01T01:11:58;17.00;99.90
17831;DHT22;9040;51.332;12.406;2022-09-01T01:14:27;17.00;99.90
17831;DHT22;9040;51.332;12.406;2022-09-01T01:16:58;17.00;99.90
17831;DHT22;9040;51.332;12.406;2022-09-01T01:19:31;17.00;99.90
17831;DHT22;9040;51.332;12.406;2022-09-01T01:22:27;17.00;99.90
17831;DHT22;9040;51.332;12.406;2022-09-01T01:25:14;16.90;99.90
17831;DHT22;9040;51.332;12.406;2022-09-01T01:27:43;16.80;99.90
17831;DHT22;9040;51.332;12.406;2022-09-01T01:30:11;16.80;99.90
17831;DHT22;9040;51.332;12.406;2022-09-01T01:32:39;16.80;99.90
17831;DHT22;9040;51.332;12.406;2022-09-01T01:35:09;16.70;99.90
17831;DHT22;9040;51.332;12.406;2022-09-01T01:37:39;16.70;99.90
17831;DHT22;9040;51.332;12.406;2022-09-01T01:40:11;16.70;99.90
17831;DHT22;9040;51.332;12.406;2022-09-01T01:42:43;16.70;99.90
17831;DHT22;9040;51.332;12.406;2022-09-01T01:45:10;16.70;99.90
17831;DHT22;9040;51.332;12.406;2022-09-01T01:47:39;16.70;99.90
17831;DHT22;9040;51.332;12.406;2022-09-01T01:50:08;16.60;99.90
17831;DHT22;9040;51.332;12.406;2022-09-01T01:52:35;16.70;99.90
17831;DHT22;9040;51.332;12.406;2022-09-01T01:55:02;16.60;99.90
17831;DHT22;9040;51.332;12.406;2022-09-01T01:57:34;16.60;99.90
17831;DHT22;9040;51.332;12.406;2022-09-01T02:00:04;16.60;99.90
17831;DHT22;9040;51.332;12.406;2022-09-01T02:02:31;16.50;99.90
17831;DHT22;9040;51.332;12.406;2022-09-01T02:04:58;16.50;99.90
17831;DHT22;9040;51.332;12.406;2022-09-01T02:07:25;16.50;99.90
17831;DHT22;9040;51.332;12.406;2022-09-01T02:09:51;16.50;99.90
17831;DHT22;9040;51.332;12.406;2022-09-01T02:12:18;16.40;99.90
17831;DHT22;9040;51.332;12.406;2022-09-01T02:14:49;16.50;99.90
17831;DHT22;9040;51.332;12.406;2022-09-01T02:17:21;16.40;99.90
17831;DHT22;9040;51.332;12.406;2022-09-01T02:19:47;16.40;99.90
17831;DHT22;9040;51.332;12.406;2022-09-01T02:22:14;16.40;99.90
17831;DHT22;9040;51.332;12.406;2022-09-01T02:24:44;16.30;99.90
17831;DHT22;9040;51.332;12.406;2022-09-01T02:27:17;16.40;99.90
17831;DHT22;9040;51.332;12.406;2022-09-01T02:29:46;16.30;99.90
17831;DHT22;9040;51.332;12.406;2022-09-01T02:32:16;16.30;99.90
17831;DHT22;9040;51.332;12.406;2022-09-01T02:34:47;16.20;99.90
17831;DHT22;9040;51.332;12.406;2022-09-01T02:37:18;16.30;99.90
17831;DHT22;9040;51.332;12.406;2022-09-01T02:39:50;16.20;99.90
17831;DHT22;9040;51.332;12.406;2022-09-01T02:42:17;16.20;99.90
17831;DHT22;9040;51.332;12.406;2022-09-01T02:44:52;16.20;99.90
17831;DHT22;9040;51.332;12.406;2022-09-01T02:47:19;16.20;99.90
17831;DHT22;9040;51.332;12.406;2022-09-01T02:49:51;16.20;99.90
17831;DHT22;9040;51.332;12.406;2022-09-01T02:52:18;16.10;99.90
17831;DHT22;9040;51.332;12.406;2022-09-01T02:54:46;16.20;99.90
17831;DHT22;9040;51.332;12.406;2022-09-01T02:57:13;16.10;99.90
17831;DHT22;9040;51.332;12.406;2022-09-01T02:59:41;16.10;99.90
17831;DHT22;9040;51.332;12.406;2022-09-01T03:02:09;16.10;99.90
17831;DHT22;9040;51.332;12.406;2022-09-01T03:04:35;16.10;99.90
17831;DHT22;9040;51.332;12.406;2022-09-01T03:07:05;16.10;99.90
17831;DHT22;9040;51.332;12.406;2022-09-01T03:09:33;16.00;99.90
17831;DHT22;9040;51.332;12.406;2022-09-01T03:12:02;15.90;99.90
17831;DHT22;9040;51.332;12.406;2022-09-01T03:14:31;15.90;99.90
17831;DHT22;9040;51.332;12.406;2022-09-01T03:16:58;15.80;99.90
17831;DHT22;9040;51.332;12.406;2022-09-01T03:19:26;15.80;99.90
17831;DHT22;9040;51.332;12.406;2022-09-01T03:22:10;15.80;99.90
17831;DHT22;9040;51.332;12.406;2022-09-01T03:24:37;15.80;99.90
17831;DHT22;9040;51.332;12.406;2022-09-01T03:27:04;15.70;99.90
17831;DHT22;9040;51.332;12.406;2022-09-01T03:29:31;15.60;99.90
17831;DHT22;9040;51.332;12.406;2022-09-01T03:31:58;15.70;99.90
17831;DHT22;9040;51.332;12.406;2022-09-01T03:34:25;15.60;99.90
17831;DHT22;9040;51.332;12.406;2022-09-01T03:36:52;15.70;99.90
17831;DHT22;9040;51.332;12.406;2022-09-01T03:39:21;15.70;99.90
17831;DHT22;9040;51.332;12.406;2022-09-01T03:41:48;15.70;99.90
17831;DHT22;9040;51.332;12.406;2022-09-01T03:44:15;15.70;99.90
17831;DHT22;9040;51.332;12.406;2022-09-01T03:46:42;15.60;99.90
17831;DHT22;9040;51.332;12.406;2022-09-01T03:49:09;15.60;99.90
17831;DHT22;9040;51.332;12.406;2022-09-01T03:51:49;15.60;99.90
17831;DHT22;9040;51.332;12.406;2022-09-01T03:54:17;15.60;99.90
17831;DHT22;9040;51.332;12.406;2022-09-01T03:56:46;15.60;99.90
17831;DHT22;9040;51.332;12.406;2022-09-01T03:59:13;15.60;99.90
17831;DHT22;9040;51.332;12.406;2022-09-01T04:01:43;15.50;99.90
17831;DHT22;9040;51.332;12.406;2022-09-01T04:04:10;15.50;99.90
17831;DHT22;9040;51.332;12.406;2022-09-01T04:06:39;15.50;99.90
17831;DHT22;9040;51.332;12.406;2022-09-01T04:09:06;15.50;99.90
17831;DHT22;9040;51.332;12.406;2022-09-01T04:11:36;15.50;99.90
17831;DHT22;9040;51.332;12.406;2022-09-01T04:14:05;15.40;99.90
17831;DHT22;9040;51.332;12.406;2022-09-01T04:16:33;15.40;99.90
17831;DHT22;9040;51.332;12.406;2022-09-01T04:19:20;15.40;99.90
17831;DHT22;9040;51.332;12.406;2022-09-01T04:21:51;15.40;99.90
17831;DHT22;9040;51.332;12.406;2022-09-01T04:24:19;15.40;99.90
17831;DHT22;9040;51.332;12.406;2022-09-01T04:26:49;15.40;99.90
17831;DHT22;9040;51.332;12.406;2022-09-01T04:29:22;15.40;99.90
17831;DHT22;9040;51.332;12.406;2022-09-01T04:31:52;15.40;99.90
17831;DHT22;9040;51.332;12.406;2022-09-01T04:34:19;15.40;99.90
17831;DHT22;9040;51.332;12.406;2022-09-01T04:36:47;15.40;99.90
17831;DHT22;9040;51.332;12.406;2022-09-01T04:39:20;15.40;99.90
17831;DHT22;9040;51.332;12.406;2022-09-01T04:41:48;15.40;99.90
17831;DHT22;9040;51.332;12.406;2022-09-01T04:44:17;15.40;99.90
17831;DHT22;9040;51.332;12.406;2022-09-01T04:46:45;15.40;99.90
17831;DHT22;9040;51.332;12.406;2022-09-01T04:49:14;15.40;99.90
17831;DHT22;9040;51.332;12.406;2022-09-01T04:51:48;15.40;99.90
17831;DHT22;9040;51.332;12.406;2022-09-01T04:54:15;15.40;99.90
17831;DHT22;9040;51.332;12.406;2022-09-01T04:56:44;15.40;99.90
17831;DHT22;9040;51.332;12.406;2022-09-01T04:59:12;15.40;99.90
17831;DHT22;9040;51.332;12.406;2022-09-01T05:01:42;15.40;99.90
17831;DHT22;9040;51.332;12.406;2022-09-01T05:04:10;15.40;99.90
17831;DHT22;9040;51.332;12.406;2022-09-01T05:06:39;15.40;99.90
17831;DHT22;9040;51.332;12.406;2022-09-01T05:09:08;15.40;99.90
17831;DHT22;9040;51.332;12.406;2022-09-01T05:11:36;15.40;99.90
17831;DHT22;9040;51.332;12.406;2022-09-01T05:14:04;15.50;99.90
17831;DHT22;9040;51.332;12.406;2022-09-01T05:16:33;15.60;99.90
17831;DHT22;9040;51.332;12.406;2022-09-01T05:19:02;15.50;99.90
17831;DHT22;9040;51.332;12.406;2022-09-01T05:21:29;15.60;99.90
17831;DHT22;9040;51.332;12.406;2022-09-01T05:23:57;15.60;99.90
17831;DHT22;9040;51.332;12.406;2022-09-01T05:26:28;15.50;99.90
17831;DHT22;9040;51.332;12.406;2022-09-01T05:28:57;15.50;99.90
17831;DHT22;9040;51.332;12.406;2022-09-01T05:31:26;15.50;99.90
17831;DHT22;9040;51.332;12.406;2022-09-01T05:33:54;15.60;99.90
17831;DHT22;9040;51.332;12.406;2022-09-01T05:36:24;15.60;99.90
17831;DHT22;9040;51.332;12.406;2022-09-01T05:38:51;15.60;99.90
17831;DHT22;9040;51.332;12.406;2022-09-01T05:41:19;15.60;99.90
17831;DHT22;9040;51.332;12.406;2022-09-01T05:43:48;15.60;99.90
17831;DHT22;9040;51.332;12.406;2022-09-01T05:46:19;15.70;99.90
17831;DHT22;9040;51.332;12.406;2022-09-01T05:48:49;15.70;99.90
17831;DHT22;9040;51.332;12.406;2022-09-01T05:51:19;15.70;99.90
17831;DHT22;9040;51.332;12.406;2022-09-01T05:53:49;15.80;99.90
17831;DHT22;9040;51.332;12.406;2022-09-01T05:56:17;15.80;99.90
17831;DHT22;9040;51.332;12.406;2022-09-01T05:58:45;15.80;99.90
17831;DHT22;9040;51.332;12.406;2022-09-01T06:01:16;15.90;99.90
17831;DHT22;9040;51.332;12.406;2022-09-01T06:03:47;15.90;99.90
17831;DHT22;9040;51.332;12.406;2022-09-01T06:06:20;16.00;99.90
17831;DHT22;9040;51.332;12.406;2022-09-01T06:08:49;16.10;99.90
17831;DHT22;9040;51.332;12.406;2022-09-01T06:11:16;16.00;99.90
17831;DHT22;9040;51.332;12.406;2022-09-01T06:13:44;16.00;99.90
17831;DHT22;9040;51.332;12.406;2022-09-01T06:16:12;16.00;99.90
17831;DHT22;9040;51.332;12.406;2022-09-01T06:18:40;16.10;99.90
17831;DHT22;9040;51.332;12.406;2022-09-01T06:21:08;16.10;99.90
17831;DHT22;9040;51.332;12.406;2022-09-01T06:23:36;16.10;99.90
17831;DHT22;9040;51.332;12.406;2022-09-01T06:26:05;16.10;99.90
17831;DHT22;9040;51.332;12.406;2022-09-01T06:28:33;16.10;99.90
17831;DHT22;9040;51.332;12.406;2022-09-01T06:31:05;16.10;99.90
17831;DHT22;9040;51.332;12.406;2022-09-01T06:33:32;16.30;99.90
17831;DHT22;9040;51.332;12.406;2022-09-01T06:36:00;16.30;99.90
17831;DHT22;9040;51.332;12.406;2022-09-01T06:38:28;16.30;99.90
17831;DHT22;9040;51.332;12.406;2022-09-01T06:41:00;16.30;99.90
17831;DHT22;9040;51.332;12.406;2022-09-01T06:43:30;16.40;99.90
17831;DHT22;9040;51.332;12.406;2022-09-01T06:46:00;16.40;99.90
17831;DHT22;9040;51.332;12.406;2022-09-01T06:48:27;16.40;99.90
17831;DHT22;9040;51.332;12.406;2022-09-01T06:50:59;16.50;99.90
17831;DHT22;9040;51.332;12.406;2022-09-01T06:53:26;16.50;99.90
17831;DHT22;9040;51.332;12.406;2022-09-01T06:55:53;16.50;99.90
17831;DHT22;9040;51.332;12.406;2022-09-01T06:58:20;16.50;99.90
17831;DHT22;9040;51.332;12.406;2022-09-01T07:00:49;16.60;99.90
17831;DHT22;9040;51.332;12.406;2022-09-01T07:03:16;16.60;99.90
17831;DHT22;9040;51.332;12.406;2022-09-01T07:05:44;16.70;99.90
17831;DHT22;9040;51.332;12.406;2022-09-01T07:08:13;16.70;99.90
17831;DHT22;9040;51.332;12.406;2022-09-01T07:10:44;16.80;99.90
17831;DHT22;9040;51.332;12.406;2022-09-01T07:13:15;16.80;99.90
17831;DHT22;9040;51.332;12.406;2022-09-01T07:15:49;16.90;99.90
17831;DHT22;9040;51.332;12.406;2022-09-01T07:18:19;17.00;99.90
17831;DHT22;9040;51.332;12.406;2022-09-01T07:20:47;17.00;99.90
17831;DHT22;9040;51.332;12.406;2022-09-01T07:23:15;17.10;99.90
17831;DHT22;9040;51.332;12.406;2022-09-01T07:25:44;17.20;99.90
17831;DHT22;9040;51.332;12.406;2022-09-01T07:28:12;17.20;99.90
17831;DHT22;9040;51.332;12.406;2022-09-01T07:30:42;17.20;99.90
17831;DHT22;9040;51.332;12.406;2022-09-01T07:33:11;17.30;99.90
17831;DHT22;9040;51.332;12.406;2022-09-01T07:35:39;17.30;99.90
17831;DHT22;9040;51.332;12.406;2022-09-01T07:38:07;17.30;99.90
17831;DHT22;9040;51.332;12.406;2022-09-01T07:40:35;17.30;99.90
17831;DHT22;9040;51.332;12.406;2022-09-01T07:43:04;17.40;99.90
17831;DHT22;9040;51.332;12.406;2022-09-01T07:45:34;17.50;99.90
17831;DHT22;9040;51.332;12.406;2022-09-01T07:48:05;17.50;99.90
17831;DHT22;9040;51.332;12.406;2022-09-01T07:50:35;17.50;99.90
17831;DHT22;9040;51.332;12.406;2022-09-01T07:53:03;17.60;99.90
17831;DHT22;9040;51.332;12.406;2022-09-01T07:55:30;17.70;99.90
17831;DHT22;9040;51.332;12.406;2022-09-01T07:57:57;17.70;99.90
17831;DHT22;9040;51.332;12.406;2022-09-01T08:00:24;17.80;99.90
17831;DHT22;9040;51.332;12.406;2022-09-01T08:02:53;17.80;99.90
17831;DHT22;9040;51.332;12.406;2022-09-01T08:05:19;17.90;99.90
17831;DHT22;9040;51.332;12.406;2022-09-01T08:07:53;17.90;99.90
17831;DHT22;9040;51.332;12.406;2022-09-01T08:10:20;18.00;99.90
17831;DHT22;9040;51.332;12.406;2022-09-01T08:12:47;18.10;99.90
17831;DHT22;9040;51.332;12.406;2022-09-01T08:15:15;18.20;99.90
17831;DHT22;9040;51.332;12.406;2022-09-01T08:17:43;18.30;99.90
17831;DHT22;9040;51.332;12.406;2022-09-01T08:20:10;18.50;99.90
17831;DHT22;9040;51.332;12.406;2022-09-01T08:22:38;18.70;99.90
17831;DHT22;9040;51.332;12.406;2022-09-01T08:25:07;18.80;99.90
17831;DHT22;9040;51.332;12.406;2022-09-01T08:27:36;18.90;99.90
17831;DHT22;9040;51.332;12.406;2022-09-01T08:30:06;18.90;99.90
17831;DHT22;9040;51.332;12.406;2022-09-01T08:32:34;19.00;99.90
17831;DHT22;9040;51.332;12.406;2022-09-01T08:35:01;19.00;99.90
17831;DHT22;9040;51.332;12.406;2022-09-01T08:37:30;19.10;99.90
17831;DHT22;9040;51.332;12.406;2022-09-01T08:39:57;19.20;99.90
17831;DHT22;9040;51.332;12.406;2022-09-01T08:42:39;19.30;99.90
17831;DHT22;9040;51.332;12.406;2022-09-01T08:45:14;19.30;99.90
17831;DHT22;9040;51.332;12.406;2022-09-01T08:47:44;19.40;99.90
17831;DHT22;9040;51.332;12.406;2022-09-01T08:50:12;19.50;99.90
17831;DHT22;9040;51.332;12.406;2022-09-01T08:52:42;19.50;99.90
17831;DHT22;9040;51.332;12.406;2022-09-01T08:55:15;19.50;99.90
17831;DHT22;9040;51.332;12.406;2022-09-01T08:57:46;19.40;99.90
17831;DHT22;9040;51.332;12.406;2022-09-01T09:00:18;19.50;99.90
17831;DHT22;9040;51.332;12.406;2022-09-01T09:02:55;19.50;99.90
17831;DHT22;9040;51.332;12.406;2022-09-01T09:05:41;19.50;99.90
17831;DHT22;9040;51.332;12.406;2022-09-01T09:08:24;19.50;99.90
17831;DHT22;9040;51.332;12.406;2022-09-01T09:10:58;19.50;99.90
17831;DHT22;9040;51.332;12.406;2022-09-01T09:13:34;19.50;99.90
17831;DHT22;9040;51.332;12.406;2022-09-01T09:16:08;19.50;99.90
17831;DHT22;9040;51.332;12.406;2022-09-01T09:18:39;19.50;99.90
17831;DHT22;9040;51.332;12.406;2022-09-01T09:21:12;19.60;99.90
17831;DHT22;9040;51.332;12.406;2022-09-01T09:23:44;19.60;99.90
17831;DHT22;9040;51.332;12.406;2022-09-01T09:26:12;19.60;99.90
17831;DHT22;9040;51.332;12.406;2022-09-01T09:28:40;19.50;99.90
17831;DHT22;9040;51.332;12.406;2022-09-01T09:31:30;19.50;99.90
17831;DHT22;9040;51.332;12.406;2022-09-01T09:33:58;19.50;99.90
17831;DHT22;9040;51.332;12.406;2022-09-01T09:36:31;19.40;99.90
17831;DHT22;9040;51.332;12.406;2022-09-01T09:39:09;19.40;99.90
17831;DHT22;9040;51.332;12.406;2022-09-01T09:41:37;19.40;99.90
17831;DHT22;9040;51.332;12.406;2022-09-01T09:44:23;19.50;99.90
17831;DHT22;9040;51.332;12.406;2022-09-01T09:46:51;19.50;99.90
17831;DHT22;9040;51.332;12.406;2022-09-01T09:49:20;19.50;99.90
17831;DHT22;9040;51.332;12.406;2022-09-01T09:51:50;19.50;99.90
17831;DHT22;9040;51.332;12.406;2022-09-01T09:54:21;19.70;99.90
17831;DHT22;9040;51.332;12.406;2022-09-01T09:57:01;19.70;99.90
17831;DHT22;9040;51.332;12.406;2022-09-01T09:59:32;19.70;99.90
17831;DHT22;9040;51.332;12.406;2022-09-01T10:02:24;19.70;99.90
17831;DHT22;9040;51.332;12.406;2022-09-01T10:04:53;19.70;99.90
17831;DHT22;9040;51.332;12.406;2022-09-01T10:07:28;19.70;99.90
17831;DHT22;9040;51.332;12.406;2022-09-01T10:09:57;19.70;99.90
17831;DHT22;9040;51.332;12.406;2022-09-01T10:12:25;19.70;99.90
17831;DHT22;9040;51.332;12.406;2022-09-01T10:14:58;19.80;99.90
17831;DHT22;9040;51.332;12.406;2022-09-01T10:17:29;19.90;99.90
17831;DHT22;9040;51.332;12.406;2022-09-01T10:19:59;19.90;99.90
17831;DHT22;9040;51.332;12.406;2022-09-01T10:22:30;20.00;99.90
17831;DHT22;9040;51.332;12.406;2022-09-01T10:24:58;20.10;99.90
17831;DHT22;9040;51.332;12.406;2022-09-01T10:27:29;20.20;99.90
17831;DHT22;9040;51.332;12.406;2022-09-01T10:30:05;20.20;99.90
17831;DHT22;9040;51.332;12.406;2022-09-01T10:32:36;20.30;99.90
17831;DHT22;9040;51.332;12.406;2022-09-01T10:35:06;20.40;99.90
17831;DHT22;9040;51.332;12.406;2022-09-01T10:37:33;20.30;99.90
17831;DHT22;9040;51.332;12.406;2022-09-01T10:40:13;20.40;99.90
17831;DHT22;9040;51.332;12.406;2022-09-01T10:42:42;20.40;99.90
17831;DHT22;9040;51.332;12.406;2022-09-01T10:45:19;20.40;99.90
17831;DHT22;9040;51.332;12.406;2022-09-01T10:47:54;20.50;99.90
17831;DHT22;9040;51.332;12.406;2022-09-01T10:50:25;20.50;99.90
17831;DHT22;9040;51.332;12.406;2022-09-01T10:52:58;20.50;99.90
17831;DHT22;9040;51.332;12.406;2022-09-01T10:55:39;20.60;99.90
17831;DHT22;9040;51.332;12.406;2022-09-01T10:58:24;20.70;99.90
17831;DHT22;9040;51.332;12.406;2022-09-01T11:00:55;20.70;99.90
17831;DHT22;9040;51.332;12.406;2022-09-01T11:06:33;21.00;99.90
17831;DHT22;9040;51.332;12.406;2022-09-01T11:09:18;21.20;99.90
17831;DHT22;9040;51.332;12.406;2022-09-01T11:11:50;21.40;99.90
17831;DHT22;9040;51.332;12.406;2022-09-01T11:14:26;21.50;99.90
17831;DHT22;9040;51.332;12.406;2022-09-01T11:17:16;21.50;99.90
17831;DHT22;9040;51.332;12.406;2022-09-01T11:19:44;21.50;99.90
17831;DHT22;9040;51.332;12.406;2022-09-01T11:22:34;21.60;99.90
17831;DHT22;9040;51.332;12.406;2022-09-01T11:28:04;21.80;99.90
17831;DHT22;9040;51.332;12.406;2022-09-01T11:30:45;21.90;99.90
17831;DHT22;9040;51.332;12.406;2022-09-01T11:33:40;21.90;99.90
17831;DHT22;9040;51.332;12.406;2022-09-01T11:36:14;21.90;99.90
17831;DHT22;9040;51.332;12.406;2022-09-01T11:38:46;22.00;99.90
17831;DHT22;9040;51.332;12.406;2022-09-01T11:41:27;22.10;99.90
17831;DHT22;9040;51.332;12.406;2022-09-01T11:43:58;22.10;99.90
17831;DHT22;9040;51.332;12.406;2022-09-01T11:46:27;22.20;99.90
17831;DHT22;9040;51.332;12.406;2022-09-01T11:48:57;22.20;99.90
17831;DHT22;9040;51.332;12.406;2022-09-01T11:51:25;22.10;99.90
17831;DHT22;9040;51.332;12.406;2022-09-01T11:53:57;22.10;99.90
17831;DHT22;9040;51.332;12.406;2022-09-01T11:56:27;22.00;99.90
17831;DHT22;9040;51.332;12.406;2022-09-01T11:58:54;22.00;99.90
17831;DHT22;9040;51.332;12.406;2022-09-01T12:01:22;21.90;99.90
17831;DHT22;9040;51.332;12.406;2022-09-01T12:03:57;21.80;99.90
17831;DHT22;9040;51.332;12.406;2022-09-01T12:06:52;21.80;99.90
17831;DHT22;9040;51.332;12.406;2022-09-01T12:09:19;21.70;99.90
17831;DHT22;9040;51.332;12.406;2022-09-01T12:11:46;21.70;99.90
17831;DHT22;9040;51.332;12.406;2022-09-01T12:14:19;21.60;99.90
17831;DHT22;9040;51.332;12.406;2022-09-01T12:16:57;21.60;99.90
17831;DHT22;9040;51.332;12.406;2022-09-01T12:19:29;21.60;99.90
17831;DHT22;9040;51.332;12.406;2022-09-01T12:21:59;21.60;99.90
17831;DHT22;9040;51.332;12.406;2022-09-01T12:24:28;21.60;99.90
17831;DHT22;9040;51.332;12.406;2022-09-01T12:26:56;21.60;99.90
17831;DHT22;9040;51.332;12.406;2022-09-01T12:29:23;21.60;99.90
17831;DHT22;9040;51.332;12.406;2022-09-01T12:31:52;21.60;99.90
17831;DHT22;9040;51.332;12.406;2022-09-01T12:34:26;21.70;99.90
17831;DHT22;9040;51.332;12.406;2022-09-01T12:37:06;21.70;99.90
17831;DHT22;9040;51.332;12.406;2022-09-01T12:39:35;21.90;99.90
17831;DHT22;9040;51.332;12.406;2022-09-01T12:42:20;21.90;99.90
17831;DHT22;9040;51.332;12.406;2022-09-01T12:44:51;22.00;99.90
17831;DHT22;9040;51.332;12.406;2022-09-01T12:47:44;22.20;99.90
17831;DHT22;9040;51.332;12.406;2022-09-01T12:50:36;22.30;99.90
17831;DHT22;9040;51.332;12.406;2022-09-01T12:53:16;22.30;99.90
17831;DHT22;9040;51.332;12.406;2022-09-01T12:58:34;22.50;99.90
17831;DHT22;9040;51.332;12.406;2022-09-01T13:01:04;22.60;99.90
17831;DHT22;9040;51.332;12.406;2022-09-01T13:03:33;22.70;99.90
17831;DHT22;9040;51.332;12.406;2022-09-01T13:06:02;22.70;99.90
17831;DHT22;9040;51.332;12.406;2022-09-01T13:08:31;22.80;99.90
17831;DHT22;9040;51.332;12.406;2022-09-01T13:11:02;23.00;99.90
17831;DHT22;9040;51.332;12.406;2022-09-01T13:13:29;23.40;99.90
17831;DHT22;9040;51.332;12.406;2022-09-01T13:15:58;25.10;99.90
17831;DHT22;9040;51.332;12.406;2022-09-01T13:18:26;27.20;99.00
17831;DHT22;9040;51.332;12.406;2022-09-01T13:20:55;29.30;92.20
17831;DHT22;9040;51.332;12.406;2022-09-01T13:23:24;30.50;84.00
17831;DHT22;9040;51.332;12.406;2022-09-01T13:25:51;30.80;73.30
17831;DHT22;9040;51.332;12.406;2022-09-01T13:28:18;31.50;74.70
17831;DHT22;9040;51.332;12.406;2022-09-01T13:30:52;32.30;70.60
17831;DHT22;9040;51.332;12.406;2022-09-01T13:33:19;31.60;67.30
17831;DHT22;9040;51.332;12.406;2022-09-01T13:35:47;30.90;69.20
17831;DHT22;9040;51.332;12.406;2022-09-01T13:38:14;30.70;68.80
17831;DHT22;9040;51.332;12.406;2022-09-01T13:40:43;30.20;68.70
17831;DHT22;9040;51.332;12.406;2022-09-01T13:43:11;29.50;69.20
17831;DHT22;9040;51.332;12.406;2022-09-01T13:45:39;29.30;70.40
17831;DHT22;9040;51.332;12.406;2022-09-01T13:48:06;28.80;74.50
17831;DHT22;9040;51.332;12.406;2022-09-01T13:50:34;28.40;73.30
17831;DHT22;9040;51.332;12.406;2022-09-01T13:53:02;28.10;73.40
17831;DHT22;9040;51.332;12.406;2022-09-01T13:55:30;27.90;76.10
17831;DHT22;9040;51.332;12.406;2022-09-01T13:57:59;27.80;77.50
17831;DHT22;9040;51.332;12.406;2022-09-01T14:00:28;27.60;74.30
17831;DHT22;9040;51.332;12.406;2022-09-01T14:02:59;27.40;75.30
17831;DHT22;9040;51.332;12.406;2022-09-01T14:05:29;27.00;75.20
17831;DHT22;9040;51.332;12.406;2022-09-01T14:07:56;26.90;75.80
17831;DHT22;9040;51.332;12.406;2022-09-01T14:10:27;26.70;77.20
17831;DHT22;9040;51.332;12.406;2022-09-01T14:12:55;26.70;80.00
17831;DHT22;9040;51.332;12.406;2022-09-01T14:15:24;26.50;78.90
17831;DHT22;9040;51.332;12.406;2022-09-01T14:17:53;26.50;79.60
17831;DHT22;9040;51.332;12.406;2022-09-01T14:20:23;26.20;79.50
17831;DHT22;9040;51.332;12.406;2022-09-01T14:22:50;26.10;81.00
17831;DHT22;9040;51.332;12.406;2022-09-01T14:25:19;25.80;80.80
17831;DHT22;9040;51.332;12.406;2022-09-01T14:27:46;25.80;81.90
17831;DHT22;9040;51.332;12.406;2022-09-01T14:30:16;25.70;83.60
17831;DHT22;9040;51.332;12.406;2022-09-01T14:32:45;25.60;82.30
17831;DHT22;9040;51.332;12.406;2022-09-01T14:35:12;25.50;82.60
17831;DHT22;9040;51.332;12.406;2022-09-01T14:37:40;25.40;83.60
17831;DHT22;9040;51.332;12.406;2022-09-01T14:40:10;25.50;84.20
17831;DHT22;9040;51.332;12.406;2022-09-01T14:42:39;25.50;82.90
17831;DHT22;9040;51.332;12.406;2022-09-01T14:45:09;25.40;83.10
17831;DHT22;9040;51.332;12.406;2022-09-01T14:47:37;25.30;82.20
17831;DHT22;9040;51.332;12.406;2022-09-01T14:50:06;25.20;82.60
17831;DHT22;9040;51.332;12.406;2022-09-01T14:52:33;25.10;83.40
17831;DHT22;9040;51.332;12.406;2022-09-01T14:55:01;25.20;83.40
17831;DHT22;9040;51.332;12.406;2022-09-01T14:57:28;25.90;84.20
17831;DHT22;9040;51.332;12.406;2022-09-01T14:59:56;26.60;82.40
17831;DHT22;9040;51.332;12.406;2022-09-01T15:02:23;27.30;80.10
17831;DHT22;9040;51.332;12.406;2022-09-01T15:04:52;28.10;79.60
17831;DHT22;9040;51.332;12.406;2022-09-01T15:07:21;28.90;76.90
17831;DHT22;9040;51.332;12.406;2022-09-01T15:09:48;29.40;73.20
17831;DHT22;9040;51.332;12.406;2022-09-01T15:12:15;29.80;69.70
17831;DHT22;9040;51.332;12.406;2022-09-01T15:14:42;29.80;70.40
17831;DHT22;9040;51.332;12.406;2022-09-01T15:17:09;29.60;69.20
17831;DHT22;9040;51.332;12.406;2022-09-01T15:19:36;29.20;70.30
17831;DHT22;9040;51.332;12.406;2022-09-01T15:22:03;29.10;71.20
17831;DHT22;9040;51.332;12.406;2022-09-01T15:24:34;29.30;72.30
17831;DHT22;9040;51.332;12.406;2022-09-01T15:27:01;29.50;71.60
17831;DHT22;9040;51.332;12.406;2022-09-01T15:29:28;30.00;71.10
17831;DHT22;9040;51.332;12.406;2022-09-01T15:31:59;30.30;70.70
17831;DHT22;9040;51.332;12.406;2022-09-01T15:34:26;30.80;72.00
17831;DHT22;9040;51.332;12.406;2022-09-01T15:36:53;31.40;71.10
17831;DHT22;9040;51.332;12.406;2022-09-01T15:39:20;32.00;69.40
17831;DHT22;9040;51.332;12.406;2022-09-01T15:41:48;32.00;69.10
17831;DHT22;9040;51.332;12.406;2022-09-01T15:44:16;32.30;68.40
17831;DHT22;9040;51.332;12.406;2022-09-01T15:46:43;32.60;67.20
17831;DHT22;9040;51.332;12.406;2022-09-01T15:49:10;32.70;65.70
17831;DHT22;9040;51.332;12.406;2022-09-01T15:51:38;32.50;65.40
17831;DHT22;9040;51.332;12.406;2022-09-01T15:54:08;32.80;64.80
17831;DHT22;9040;51.332;12.406;2022-09-01T15:56:36;33.00;65.50